sensor_id;sensor_type;location;lat;lon;timestamp;temperature;humidity
46676;DHT22;32412;51.478;5.694;2023-09-19T00:00:42;14.90;99.90
46676;DHT22;32412;51.478;5.694;2023-09-19T00:03:09;14.90;99.90
46676;DHT22;32412;51.478;5.694;2023-09-19T00:05:36;14.90;99.90
46676;DHT22;32412;51.478;5.694;2023-09-19T00:08:04;14.90;99.90
46676;DHT22;32412;51.478;5.694;2023-09-19T00:10:38;14.90;99.90
46676;DHT22;32412;51.478;5.694;2023-09-19T00:13:06;14.90;99.90
46676;DHT22;32412;51.478;5.694;2023-09-19T00:15:40;14.90;99.90
46676;DHT22;32412;51.478;5.694;2023-09-19T00:18:08;14.90;99.90
46676;DHT22;32412;51.478;5.694;2023-09-19T00:20:37;14.90;99.90
46676;DHT22;32412;51.478;5.694;2023-09-19T00:23:14;14.90;99.90
46676;DHT22;32412;51.478;5.694;2023-09-19T00:25:40;14.90;99.90
46676;DHT22;32412;51.478;5.694;2023-09-19T00:28:07;14.80;99.90
46676;DHT22;32412;51.478;5.694;2023-09-19T00:30:34;14.80;99.90
46676;DHT22;32412;51.478;5.694;2023-09-19T00:33:00;14.70;99.90
46676;DHT22;32412;51.478;5.694;2023-09-19T00:35:34;14.70;99.90
46676;DHT22;32412;51.478;5.694;2023-09-19T00:38:00;14.70;99.90
46676;DHT22;32412;51.478;5.694;2023-09-19T00:40:29;14.70;99.90
46676;DHT22;32412;51.478;5.694;2023-09-19T00:42:58;14.70;99.90
46676;DHT22;32412;51.478;5.694;2023-09-19T00:45:25;14.70;99.90
46676;DHT22;32412;51.478;5.694;2023-09-19T00:47:54;14.70;99.90
46676;DHT22;32412;51.478;5.694;2023-09-19T00:50:24;14.70;99.90
46676;DHT22;32412;51.478;5.694;2023-09-19T00:52:54;14.70;99.90
46676;DHT22;32412;51.478;5.694;2023-09-19T00:55:21;14.70;99.90
46676;DHT22;32412;51.478;5.694;2023-09-19T00:57:48;14.70;99.90
46676;DHT22;32412;51.478;5.694;2023-09-19T01:00:19;14.70;99.90
46676;DHT22;32412;51.478;5.694;2023-09-19T01:02:46;14.60;99.90
46676;DHT22;32412;51.478;5.694;2023-09-19T01:05:14;14.60;99.90
46676;DHT22;32412;51.478;5.694;2023-09-19T01:07:41;14.60;99.90
46676;DHT22;32412;51.478;5.694;2023-09-19T01:10:12;14.60;99.90
46676;DHT22;32412;51.478;5.694;2023-09-19T01:29:43;14.50;99.90
46676;DHT22;32412;51.478;5.694;2023-09-19T01:32:11;14.50;99.90
46676;DHT22;32412;51.478;5.694;2023-09-19T01:37:20;14.40;99.90
46676;DHT22;32412;51.478;5.694;2023-09-19T01:39:50;14.30;99.90
46676;DHT22;32412;51.478;5.694;2023-09-19T01:46:04;14.40;99.90
46676;DHT22;32412;51.478;5.694;2023-09-19T01:51:06;14.40;99.90
46676;DHT22;32412;51.478;5.694;2023-09-19T01:53:57;14.40;99.90
46676;DHT22;32412;51.478;5.694;2023-09-19T01:56:36;14.40;99.90
46676;DHT22;32412;51.478;5.694;2023-09-19T01:59:07;14.40;99.90
46676;DHT22;32412;51.478;5.694;2023-09-19T02:01:37;14.40;99.90
46676;DHT22;32412;51.478;5.694;2023-09-19T02:04:05;14.40;99.90
46676;DHT22;32412;51.478;5.694;2023-09-19T02:06:32;14.30;99.90
46676;DHT22;32412;51.478;5.694;2023-09-19T02:08:59;14.30;99.90
46676;DHT22;32412;51.478;5.694;2023-09-19T02:11:25;14.30;99.90
46676;DHT22;32412;51.478;5.694;2023-09-19T02:13:51;14.30;99.90
46676;DHT22;32412;51.478;5.694;2023-09-19T02:16:20;14.30;99.90
46676;DHT22;32412;51.478;5.694;2023-09-19T02:18:50;14.30;99.90
46676;DHT22;32412;51.478;5.694;2023-09-19T02:21:17;14.30;99.90
46676;DHT22;32412;51.478;5.694;2023-09-19T02:23:44;14.30;99.90
46676;DHT22;32412;51.478;5.694;2023-09-19T02:26:10;14.30;99.90
46676;DHT22;32412;51.478;5.694;2023-09-19T02:28:37;14.20;99.90
46676;DHT22;32412;51.478;5.694;2023-09-19T02:31:03;14.20;99.90
46676;DHT22;32412;51.478;5.694;2023-09-19T02:33:31;14.20;99.90
46676;DHT22;32412;51.478;5.694;2023-09-19T02:35:58;14.10;99.90
46676;DHT22;32412;51.478;5.694;2023-09-19T02:38:27;14.10;99.90
46676;DHT22;32412;51.478;5.694;2023-09-19T02:40:53;14.10;99.90
46676;DHT22;32412;51.478;5.694;2023-09-19T02:43:23;14.10;99.90
46676;DHT22;32412;51.478;5.694;2023-09-19T02:45:50;14.00;99.90
46676;DHT22;32412;51.478;5.694;2023-09-19T02:48:16;13.90;99.90
46676;DHT22;32412;51.478;5.694;2023-09-19T02:50:43;13.90;99.90
46676;DHT22;32412;51.478;5.694;2023-09-19T02:53:10;13.90;99.90
46676;DHT22;32412;51.478;5.694;2023-09-19T02:55:38;13.90;99.90
46676;DHT22;32412;51.478;5.694;2023-09-19T02:58:06;13.80;99.90
46676;DHT22;32412;51.478;5.694;2023-09-19T03:00:33;13.80;99.90
46676;DHT22;32412;51.478;5.694;2023-09-19T03:03:01;13.80;99.90
46676;DHT22;32412;51.478;5.694;2023-09-19T03:05:28;13.80;99.90
46676;DHT22;32412;51.478;5.694;2023-09-19T03:07:56;13.80;99.90
46676;DHT22;32412;51.478;5.694;2023-09-19T03:10:22;13.80;99.90
46676;DHT22;32412;51.478;5.694;2023-09-19T03:12:50;13.70;99.90
46676;DHT22;32412;51.478;5.694;2023-09-19T03:15:16;13.70;99.90
46676;DHT22;32412;51.478;5.694;2023-09-19T03:17:48;13.70;99.90
46676;DHT22;32412;51.478;5.694;2023-09-19T03:20:14;13.70;99.90
46676;DHT22;32412;51.478;5.694;2023-09-19T03:22:43;13.70;99.90
46676;DHT22;32412;51.478;5.694;2023-09-19T03:25:09;13.70;99.90
46676;DHT22;32412;51.478;5.694;2023-09-19T03:27:40;13.70;99.90
46676;DHT22;32412;51.478;5.694;2023-09-19T03:30:07;13.60;99.90
46676;DHT22;32412;51.478;5.694;2023-09-19T03:32:35;13.60;99.90
46676;DHT22;32412;51.478;5.694;2023-09-19T03:35:04;13.60;99.90
46676;DHT22;32412;51.478;5.694;2023-09-19T03:37:35;13.50;99.90
46676;DHT22;32412;51.478;5.694;2023-09-19T03:40:00;13.60;99.90
46676;DHT22;32412;51.478;5.694;2023-09-19T03:42:40;13.50;99.90
46676;DHT22;32412;51.478;5.694;2023-09-19T03:45:08;13.50;99.90
46676;DHT22;32412;51.478;5.694;2023-09-19T03:47:40;13.50;99.90
46676;DHT22;32412;51.478;5.694;2023-09-19T03:50:06;13.50;99.90
46676;DHT22;32412;51.478;5.694;2023-09-19T03:52:36;13.40;99.90
46676;DHT22;32412;51.478;5.694;2023-09-19T03:55:05;13.40;99.90
46676;DHT22;32412;51.478;5.694;2023-09-19T03:57:31;13.40;99.90
46676;DHT22;32412;51.478;5.694;2023-09-19T04:00:01;13.40;99.90
46676;DHT22;32412;51.478;5.694;2023-09-19T04:02:30;13.40;99.90
46676;DHT22;32412;51.478;5.694;2023-09-19T04:05:01;13.40;99.90
46676;DHT22;32412;51.478;5.694;2023-09-19T04:07:27;13.40;99.90
46676;DHT22;32412;51.478;5.694;2023-09-19T04:09:55;13.40;99.90
46676;DHT22;32412;51.478;5.694;2023-09-19T04:12:24;13.40;99.90
46676;DHT22;32412;51.478;5.694;2023-09-19T04:14:50;13.40;99.90
46676;DHT22;32412;51.478;5.694;2023-09-19T04:17:19;13.40;99.90
46676;DHT22;32412;51.478;5.694;2023-09-19T04:19:46;13.40;99.90
46676;DHT22;32412;51.478;5.694;2023-09-19T04:22:12;13.40;99.90
46676;DHT22;32412;51.478;5.694;2023-09-19T04:24:38;13.30;99.90
46676;DHT22;32412;51.478;5.694;2023-09-19T04:27:07;13.30;99.90
46676;DHT22;32412;51.478;5.694;2023-09-19T04:29:33;13.30;99.90
46676;DHT22;32412;51.478;5.694;2023-09-19T04:31:59;13.30;99.90
46676;DHT22;32412;51.478;5.694;2023-09-19T04:34:34;13.30;99.90
46676;DHT22;32412;51.478;5.694;2023-09-19T04:37:00;13.30;99.90
46676;DHT22;32412;51.478;5.694;2023-09-19T04:39:26;13.30;99.90
46676;DHT22;32412;51.478;5.694;2023-09-19T04:41:53;13.30;99.90
46676;DHT22;32412;51.478;5.694;2023-09-19T04:44:19;13.30;99.90
46676;DHT22;32412;51.478;5.694;2023-09-19T04:46:48;13.30;99.90
46676;DHT22;32412;51.478;5.694;2023-09-19T04:49:16;13.40;99.90
46676;DHT22;32412;51.478;5.694;2023-09-19T04:51:42;13.40;99.90
46676;DHT22;32412;51.478;5.694;2023-09-19T04:54:08;13.40;99.90
46676;DHT22;32412;51.478;5.694;2023-09-19T04:56:34;13.40;99.90
46676;DHT22;32412;51.478;5.694;2023-09-19T04:59:00;13.40;99.90
46676;DHT22;32412;51.478;5.694;2023-09-19T05:01:26;13.40;99.90
46676;DHT22;32412;51.478;5.694;2023-09-19T05:03:52;13.50;99.90
46676;DHT22;32412;51.478;5.694;2023-09-19T05:06:22;13.60;99.90
46676;DHT22;32412;51.478;5.694;2023-09-19T05:08:53;13.70;99.90
46676;DHT22;32412;51.478;5.694;2023-09-19T05:11:25;13.80;99.90
46676;DHT22;32412;51.478;5.694;2023-09-19T05:13:55;13.90;99.90
46676;DHT22;32412;51.478;5.694;2023-09-19T05:16:28;13.90;99.90
46676;DHT22;32412;51.478;5.694;2023-09-19T05:18:56;14.00;99.90
46676;DHT22;32412;51.478;5.694;2023-09-19T05:21:25;14.10;99.90
46676;DHT22;32412;51.478;5.694;2023-09-19T05:23:58;14.20;99.90
46676;DHT22;32412;51.478;5.694;2023-09-19T05:26:31;14.20;99.90
46676;DHT22;32412;51.478;5.694;2023-09-19T05:28:57;14.20;99.90
46676;DHT22;32412;51.478;5.694;2023-09-19T05:31:23;14.10;99.90
46676;DHT22;32412;51.478;5.694;2023-09-19T05:33:52;14.10;99.90
46676;DHT22;32412;51.478;5.694;2023-09-19T05:36:20;14.10;99.90
46676;DHT22;32412;51.478;5.694;2023-09-19T05:38:45;14.10;99.90
46676;DHT22;32412;51.478;5.694;2023-09-19T05:41:14;14.10;99.90
46676;DHT22;32412;51.478;5.694;2023-09-19T05:43:40;14.10;99.90
46676;DHT22;32412;51.478;5.694;2023-09-19T05:46:07;14.10;99.90
46676;DHT22;32412;51.478;5.694;2023-09-19T05:48:34;14.10;99.90
46676;DHT22;32412;51.478;5.694;2023-09-19T05:50:59;14.10;99.90
46676;DHT22;32412;51.478;5.694;2023-09-19T05:53:29;14.10;99.90
46676;DHT22;32412;51.478;5.694;2023-09-19T05:55:55;14.10;99.90
46676;DHT22;32412;51.478;5.694;2023-09-19T05:58:21;14.20;99.90
46676;DHT22;32412;51.478;5.694;2023-09-19T06:00:47;14.20;99.90
46676;DHT22;32412;51.478;5.694;2023-09-19T06:03:17;14.20;99.90
46676;DHT22;32412;51.478;5.694;2023-09-19T06:05:44;14.20;99.90
46676;DHT22;32412;51.478;5.694;2023-09-19T06:08:11;14.20;99.90
46676;DHT22;32412;51.478;5.694;2023-09-19T06:10:40;14.20;99.90
46676;DHT22;32412;51.478;5.694;2023-09-19T06:13:06;14.20;99.90
46676;DHT22;32412;51.478;5.694;2023-09-19T06:15:37;14.20;99.90
46676;DHT22;32412;51.478;5.694;2023-09-19T06:18:12;14.30;99.90
46676;DHT22;32412;51.478;5.694;2023-09-19T06:20:51;14.30;99.90
46676;DHT22;32412;51.478;5.694;2023-09-19T06:23:21;14.40;99.90
46676;DHT22;32412;51.478;5.694;2023-09-19T06:25:46;14.40;99.90
46676;DHT22;32412;51.478;5.694;2023-09-19T06:28:35;14.40;99.90
46676;DHT22;32412;51.478;5.694;2023-09-19T06:31:02;14.40;99.90
46676;DHT22;32412;51.478;5.694;2023-09-19T06:33:28;14.50;99.90
46676;DHT22;32412;51.478;5.694;2023-09-19T06:36:03;14.50;99.90
46676;DHT22;32412;51.478;5.694;2023-09-19T06:38:30;14.50;99.90
46676;DHT22;32412;51.478;5.694;2023-09-19T06:41:03;14.50;99.90
46676;DHT22;32412;51.478;5.694;2023-09-19T06:43:44;14.60;99.90
46676;DHT22;32412;51.478;5.694;2023-09-19T06:46:21;14.60;99.90
46676;DHT22;32412;51.478;5.694;2023-09-19T06:48:50;14.60;99.90
46676;DHT22;32412;51.478;5.694;2023-09-19T07:07:49;14.90;99.90
46676;DHT22;32412;51.478;5.694;2023-09-19T07:27:35;15.30;99.90
46676;DHT22;32412;51.478;5.694;2023-09-19T07:31:04;15.40;99.90
46676;DHT22;32412;51.478;5.694;2023-09-19T07:50:36;15.80;99.90
46676;DHT22;32412;51.478;5.694;2023-09-19T08:03:30;16.20;99.90
46676;DHT22;32412;51.478;5.694;2023-09-19T08:09:40;16.50;99.90
46676;DHT22;32412;51.478;5.694;2023-09-19T08:12:38;16.50;99.90
46676;DHT22;32412;51.478;5.694;2023-09-19T08:18:41;16.60;99.90
46676;DHT22;32412;51.478;5.694;2023-09-19T08:21:24;16.70;99.90
46676;DHT22;32412;51.478;5.694;2023-09-19T08:24:46;16.80;99.90
46676;DHT22;32412;51.478;5.694;2023-09-19T08:27:43;16.90;99.90
46676;DHT22;32412;51.478;5.694;2023-09-19T08:38:30;17.30;99.90
46676;DHT22;32412;51.478;5.694;2023-09-19T08:41:36;17.40;99.90
46676;DHT22;32412;51.478;5.694;2023-09-19T08:55:02;17.70;99.90
46676;DHT22;32412;51.478;5.694;2023-09-19T09:22:10;18.10;99.90
46676;DHT22;32412;51.478;5.694;2023-09-19T09:31:45;18.50;99.90
46676;DHT22;32412;51.478;5.694;2023-09-19T09:34:14;19.00;99.90
46676;DHT22;32412;51.478;5.694;2023-09-19T09:36:40;19.20;99.90
46676;DHT22;32412;51.478;5.694;2023-09-19T09:39:07;19.60;99.90
46676;DHT22;32412;51.478;5.694;2023-09-19T09:41:50;19.70;99.90
46676;DHT22;32412;51.478;5.694;2023-09-19T09:44:19;20.10;99.90
46676;DHT22;32412;51.478;5.694;2023-09-19T09:46:46;20.30;99.90
46676;DHT22;32412;51.478;5.694;2023-09-19T09:49:23;20.80;99.90
46676;DHT22;32412;51.478;5.694;2023-09-19T09:54:35;21.40;99.90
46676;DHT22;32412;51.478;5.694;2023-09-19T09:57:08;21.40;99.90
46676;DHT22;32412;51.478;5.694;2023-09-19T09:59:56;21.70;99.90
46676;DHT22;32412;51.478;5.694;2023-09-19T10:02:42;21.60;99.90
46676;DHT22;32412;51.478;5.694;2023-09-19T10:05:17;22.20;99.90
46676;DHT22;32412;51.478;5.694;2023-09-19T10:07:50;21.80;99.90
46676;DHT22;32412;51.478;5.694;2023-09-19T10:10:38;21.60;99.90
46676;DHT22;32412;51.478;5.694;2023-09-19T10:13:08;22.40;99.90
46676;DHT22;32412;51.478;5.694;2023-09-19T10:15:53;23.00;99.90
46676;DHT22;32412;51.478;5.694;2023-09-19T10:18:22;22.90;99.90
46676;DHT22;32412;51.478;5.694;2023-09-19T10:20:48;22.80;99.90
46676;DHT22;32412;51.478;5.694;2023-09-19T10:23:18;22.50;99.90
46676;DHT22;32412;51.478;5.694;2023-09-19T10:25:51;22.50;99.90
46676;DHT22;32412;51.478;5.694;2023-09-19T10:28:18;22.70;99.90
46676;DHT22;32412;51.478;5.694;2023-09-19T10:30:53;23.10;99.90
46676;DHT22;32412;51.478;5.694;2023-09-19T10:33:21;23.10;99.90
46676;DHT22;32412;51.478;5.694;2023-09-19T10:35:49;22.80;99.90
46676;DHT22;32412;51.478;5.694;2023-09-19T10:41:27;24.00;99.90
46676;DHT22;32412;51.478;5.694;2023-09-19T10:44:04;23.60;99.90
46676;DHT22;32412;51.478;5.694;2023-09-19T10:46:59;23.70;99.90
46676;DHT22;32412;51.478;5.694;2023-09-19T10:49:44;24.40;99.90
46676;DHT22;32412;51.478;5.694;2023-09-19T10:52:25;25.00;99.20
46676;DHT22;32412;51.478;5.694;2023-09-19T10:54:56;24.80;99.10
46676;DHT22;32412;51.478;5.694;2023-09-19T10:57:32;24.60;99.80
46676;DHT22;32412;51.478;5.694;2023-09-19T11:00:09;24.80;99.60
46676;DHT22;32412;51.478;5.694;2023-09-19T11:05:43;24.40;99.10
46676;DHT22;32412;51.478;5.694;2023-09-19T11:08:09;23.90;99.90
46676;DHT22;32412;51.478;5.694;2023-09-19T11:10:48;24.10;99.90
46676;DHT22;32412;51.478;5.694;2023-09-19T11:13:30;24.20;99.40
46676;DHT22;32412;51.478;5.694;2023-09-19T11:16:05;24.10;98.70
46676;DHT22;32412;51.478;5.694;2023-09-19T11:19:01;24.30;98.90
46676;DHT22;32412;51.478;5.694;2023-09-19T11:28:08;24.90;97.70
46676;DHT22;32412;51.478;5.694;2023-09-19T11:31:41;25.50;98.10
46676;DHT22;32412;51.478;5.694;2023-09-19T11:40:09;25.50;96.50
46676;DHT22;32412;51.478;5.694;2023-09-19T11:42:48;25.20;96.70
46676;DHT22;32412;51.478;5.694;2023-09-19T11:48:15;24.40;96.70
46676;DHT22;32412;51.478;5.694;2023-09-19T11:50:48;24.50;98.20
46676;DHT22;32412;51.478;5.694;2023-09-19T12:14:32;25.00;96.90
46676;DHT22;32412;51.478;5.694;2023-09-19T12:17:00;24.00;98.10
46676;DHT22;32412;51.478;5.694;2023-09-19T12:22:50;22.70;99.50
46676;DHT22;32412;51.478;5.694;2023-09-19T12:25:16;22.30;99.80
46676;DHT22;32412;51.478;5.694;2023-09-19T12:27:49;22.20;99.90
46676;DHT22;32412;51.478;5.694;2023-09-19T12:30:18;22.50;99.90
46676;DHT22;32412;51.478;5.694;2023-09-19T12:32:46;22.40;99.90
46676;DHT22;32412;51.478;5.694;2023-09-19T12:35:40;22.00;99.90
46676;DHT22;32412;51.478;5.694;2023-09-19T12:38:06;21.90;99.90
46676;DHT22;32412;51.478;5.694;2023-09-19T12:40:33;22.00;99.90
46676;DHT22;32412;51.478;5.694;2023-09-19T12:43:01;22.10;99.90
46676;DHT22;32412;51.478;5.694;2023-09-19T12:45:31;22.00;99.90
46676;DHT22;32412;51.478;5.694;2023-09-19T12:48:22;21.70;99.90
46676;DHT22;32412;51.478;5.694;2023-09-19T12:51:08;21.50;99.90
46676;DHT22;32412;51.478;5.694;2023-09-19T12:53:42;21.40;99.90
46676;DHT22;32412;51.478;5.694;2023-09-19T12:56:13;21.40;99.90
46676;DHT22;32412;51.478;5.694;2023-09-19T12:59:17;21.30;99.90
46676;DHT22;32412;51.478;5.694;2023-09-19T13:01:43;21.00;99.90
46676;DHT22;32412;51.478;5.694;2023-09-19T13:04:19;20.90;99.90
46676;DHT22;32412;51.478;5.694;2023-09-19T13:06:50;20.90;99.90
46676;DHT22;32412;51.478;5.694;2023-09-19T13:09:17;21.00;99.90
46676;DHT22;32412;51.478;5.694;2023-09-19T13:11:43;21.10;99.90
46676;DHT22;32412;51.478;5.694;2023-09-19T13:14:24;21.10;99.90
46676;DHT22;32412;51.478;5.694;2023-09-19T13:17:07;21.10;99.90
46676;DHT22;32412;51.478;5.694;2023-09-19T13:19:45;21.20;99.90
46676;DHT22;32412;51.478;5.694;2023-09-19T13:22:36;21.20;99.90
46676;DHT22;32412;51.478;5.694;2023-09-19T13:25:04;21.30;99.90
46676;DHT22;32412;51.478;5.694;2023-09-19T13:27:32;21.20;99.90
46676;DHT22;32412;51.478;5.694;2023-09-19T13:29:58;21.20;99.90
46676;DHT22;32412;51.478;5.694;2023-09-19T13:32:25;21.00;99.90
46676;DHT22;32412;51.478;5.694;2023-09-19T13:34:50;21.00;99.90
46676;DHT22;32412;51.478;5.694;2023-09-19T13:37:17;20.90;99.90
46676;DHT22;32412;51.478;5.694;2023-09-19T13:39:43;20.80;99.90
46676;DHT22;32412;51.478;5.694;2023-09-19T13:42:13;20.80;99.90
46676;DHT22;32412;51.478;5.694;2023-09-19T13:44:39;20.60;99.90
46676;DHT22;32412;51.478;5.694;2023-09-19T13:47:06;20.50;99.90
46676;DHT22;32412;51.478;5.694;2023-09-19T13:49:35;20.50;99.90
46676;DHT22;32412;51.478;5.694;2023-09-19T13:52:02;20.50;99.90
46676;DHT22;32412;51.478;5.694;2023-09-19T13:54:31;20.50;99.90
46676;DHT22;32412;51.478;5.694;2023-09-19T13:56:56;20.50;99.90
46676;DHT22;32412;51.478;5.694;2023-09-19T13:59:22;20.50;99.90
46676;DHT22;32412;51.478;5.694;2023-09-19T14:01:51;20.40;99.90
46676;DHT22;32412;51.478;5.694;2023-09-19T14:04:19;20.40;99.90
46676;DHT22;32412;51.478;5.694;2023-09-19T14:06:46;20.30;99.90
46676;DHT22;32412;51.478;5.694;2023-09-19T14:09:11;20.30;99.90
46676;DHT22;32412;51.478;5.694;2023-09-19T14:11:39;20.40;99.90
46676;DHT22;32412;51.478;5.694;2023-09-19T14:14:05;20.30;99.90
46676;DHT22;32412;51.478;5.694;2023-09-19T14:16:31;20.30;99.90
46676;DHT22;32412;51.478;5.694;2023-09-19T14:18:57;20.30;99.90
46676;DHT22;32412;51.478;5.694;2023-09-19T14:21:28;20.30;99.90
46676;DHT22;32412;51.478;5.694;2023-09-19T14:23:54;20.30;99.90
46676;DHT22;32412;51.478;5.694;2023-09-19T14:26:20;20.40;99.90
46676;DHT22;32412;51.478;5.694;2023-09-19T14:28:46;20.30;99.90
46676;DHT22;32412;51.478;5.694;2023-09-19T14:31:11;20.40;99.90
46676;DHT22;32412;51.478;5.694;2023-09-19T14:33:38;20.50;99.90
46676;DHT22;32412;51.478;5.694;2023-09-19T14:36:05;20.60;99.90
46676;DHT22;32412;51.478;5.694;2023-09-19T14:38:33;20.60;99.90
46676;DHT22;32412;51.478;5.694;2023-09-19T14:41:04;20.70;99.90
46676;DHT22;32412;51.478;5.694;2023-09-19T14:43:30;20.80;99.90
46676;DHT22;32412;51.478;5.694;2023-09-19T14:45:56;20.80;99.90
46676;DHT22;32412;51.478;5.694;2023-09-19T14:48:25;20.90;99.90
46676;DHT22;32412;51.478;5.694;2023-09-19T14:50:52;21.00;99.90
46676;DHT22;32412;51.478;5.694;2023-09-19T14:53:18;21.10;99.90
46676;DHT22;32412;51.478;5.694;2023-09-19T14:55:44;21.10;99.90
46676;DHT22;32412;51.478;5.694;2023-09-19T14:58:13;21.00;99.90
46676;DHT22;32412;51.478;5.694;2023-09-19T15:00:41;21.00;99.90
46676;DHT22;32412;51.478;5.694;2023-09-19T15:03:06;20.80;99.90
46676;DHT22;32412;51.478;5.694;2023-09-19T15:05:32;20.70;99.90
46676;DHT22;32412;51.478;5.694;2023-09-19T15:07:59;20.60;99.90
46676;DHT22;32412;51.478;5.694;2023-09-19T15:10:25;20.60;99.90
46676;DHT22;32412;51.478;5.694;2023-09-19T15:12:51;20.60;99.90
46676;DHT22;32412;51.478;5.694;2023-09-19T15:15:16;20.60;99.90
46676;DHT22;32412;51.478;5.694;2023-09-19T15:17:42;20.40;99.90
46676;DHT22;32412;51.478;5.694;2023-09-19T15:20:08;20.30;99.90
46676;DHT22;32412;51.478;5.694;2023-09-19T15:22:34;20.30;99.90
46676;DHT22;32412;51.478;5.694;2023-09-19T15:25:03;20.30;99.90
46676;DHT22;32412;51.478;5.694;2023-09-19T15:27:29;20.30;99.90
46676;DHT22;32412;51.478;5.694;2023-09-19T15:29:57;20.20;99.90
46676;DHT22;32412;51.478;5.694;2023-09-19T15:32:24;20.30;99.90
46676;DHT22;32412;51.478;5.694;2023-09-19T15:34:50;20.40;99.90
46676;DHT22;32412;51.478;5.694;2023-09-19T15:37:15;20.40;99.90
46676;DHT22;32412;51.478;5.694;2023-09-19T15:39:41;20.50;99.90
46676;DHT22;32412;51.478;5.694;2023-09-19T15:42:07;20.60;99.90
46676;DHT22;32412;51.478;5.694;2023-09-19T15:44:33;20.80;99.90
46676;DHT22;32412;51.478;5.694;2023-09-19T15:47:01;20.70;99.90
46676;DHT22;32412;51.478;5.694;2023-09-19T15:49:27;20.60;99.90
46676;DHT22;32412;51.478;5.694;2023-09-19T15:51:53;20.50;99.90
46676;DHT22;32412;51.478;5.694;2023-09-19T15:54:19;20.40;99.90
46676;DHT22;32412;51.478;5.694;2023-09-19T15:56:45;20.40;99.90
46676;DHT22;32412;51.478;5.694;2023-09-19T15:59:15;20.20;99.90
46676;DHT22;32412;51.478;5.694;2023-09-19T16:01:43;20.10;99.90
46676;DHT22;32412;51.478;5.694;2023-09-19T16:04:12;19.90;99.90
46676;DHT22;32412;51.478;5.694;2023-09-19T16:06:38;19.70;99.90
46676;DHT22;32412;51.478;5.694;2023-09-19T16:09:08;19.70;99.90
46676;DHT22;32412;51.478;5.694;2023-09-19T16:11:34;19.60;99.90
46676;DHT22;32412;51.478;5.694;2023-09-19T16:14:01;19.70;99.90
46676;DHT22;32412;51.478;5.694;2023-09-19T16:16:27;19.60;99.90
46676;DHT22;32412;51.478;5.694;2023-09-19T16:19:04;19.60;99.90
46676;DHT22;32412;51.478;5.694;2023-09-19T16:21:40;19.50;99.90
46676;DHT22;32412;51.478;5.694;2023-09-19T16:24:08;19.40;99.90
46676;DHT22;32412;51.478;5.694;2023-09-19T16:26:36;19.40;99.90
46676;DHT22;32412;51.478;5.694;2023-09-19T16:29:02;19.40;99.90
46676;DHT22;32412;51.478;5.694;2023-09-19T16:31:29;19.30;99.90
46676;DHT22;32412;51.478;5.694;2023-09-19T16:33:56;19.30;99.90
46676;DHT22;32412;51.478;5.694;2023-09-19T16:36:28;19.30;99.90
46676;DHT22;32412;51.478;5.694;2023-09-19T16:38:54;19.30;99.90
46676;DHT22;32412;51.478;5.694;2023-09-19T16:41:20;19.30;99.90
46676;DHT22;32412;51.478;5.694;2023-09-19T16:43:46;19.20;99.90
46676;DHT22;32412;51.478;5.694;2023-09-19T16:46:13;19.20;99.90
46676;DHT22;32412;51.478;5.694;2023-09-19T16:48:46;19.20;99.90
46676;DHT22;32412;51.478;5.694;2023-09-19T16:51:15;19.20;99.90
46676;DHT22;32412;51.478;5.694;2023-09-19T16:53:41;19.10;99.90
46676;DHT22;32412;51.478;5.694;2023-09-19T16:56:09;19.10;99.90
46676;DHT22;32412;51.478;5.694;2023-09-19T16:58:36;19.10;99.90
46676;DHT22;32412;51.478;5.694;2023-09-19T17:01:06;19.10;99.90
46676;DHT22;32412;51.478;5.694;2023-09-19T17:03:39;19.00;99.90
46676;DHT22;32412;51.478;5.694;2023-09-19T17:06:09;19.00;99.90
46676;DHT22;32412;51.478;5.694;2023-09-19T17:08:37;19.00;99.90
46676;DHT22;32412;51.478;5.694;2023-09-19T17:13:29;19.00;99.90
46676;DHT22;32412;51.478;5.694;2023-09-19T17:16:09;19.00;99.90
46676;DHT22;32412;51.478;5.694;2023-09-19T17:18:35;19.00;99.90
46676;DHT22;32412;51.478;5.694;2023-09-19T17:21:03;18.90;99.90
46676;DHT22;32412;51.478;5.694;2023-09-19T17:23:32;18.90;99.90
46676;DHT22;32412;51.478;5.694;2023-09-19T17:26:03;18.90;99.90
46676;DHT22;32412;51.478;5.694;2023-09-19T17:28:32;18.90;99.90
46676;DHT22;32412;51.478;5.694;2023-09-19T17:30:58;18.80;99.90
46676;DHT22;32412;51.478;5.694;2023-09-19T17:33:32;18.90;99.90
46676;DHT22;32412;51.478;5.694;2023-09-19T17:36:05;18.90;99.90
46676;DHT22;32412;51.478;5.694;2023-09-19T17:38:32;18.90;99.90
46676;DHT22;32412;51.478;5.694;2023-09-19T17:41:04;18.90;99.90
46676;DHT22;32412;51.478;5.694;2023-09-19T17:43:46;18.80;99.90
46676;DHT22;32412;51.478;5.694;2023-09-19T17:46:13;18.80;99.90
46676;DHT22;32412;51.478;5.694;2023-09-19T17:48:41;18.70;99.90
46676;DHT22;32412;51.478;5.694;2023-09-19T17:51:08;18.70;99.90
46676;DHT22;32412;51.478;5.694;2023-09-19T17:53:37;18.80;99.90
46676;DHT22;32412;51.478;5.694;2023-09-19T17:56:08;18.70;99.90
46676;DHT22;32412;51.478;5.694;2023-09-19T17:58:38;18.70;99.90
46676;DHT22;32412;51.478;5.694;2023-09-19T18:01:15;18.70;99.90
46676;DHT22;32412;51.478;5.694;2023-09-19T18:03:41;18.70;99.90
46676;DHT22;32412;51.478;5.694;2023-09-19T18:06:11;18.70;99.90
46676;DHT22;32412;51.478;5.694;2023-09-19T18:08:38;18.60;99.90
46676;DHT22;32412;51.478;5.694;2023-09-19T18:14:27;18.50;99.90
46676;DHT22;32412;51.478;5.694;2023-09-19T18:16:57;18.60;99.90
46676;DHT22;32412;51.478;5.694;2023-09-19T18:19:23;18.60;99.90
46676;DHT22;32412;51.478;5.694;2023-09-19T18:21:49;18.50;99.90
46676;DHT22;32412;51.478;5.694;2023-09-19T18:24:16;18.50;99.90
46676;DHT22;32412;51.478;5.694;2023-09-19T18:26:42;18.50;99.90
46676;DHT22;32412;51.478;5.694;2023-09-19T18:29:08;18.40;99.90
46676;DHT22;32412;51.478;5.694;2023-09-19T18:31:36;18.40;99.90
46676;DHT22;32412;51.478;5.694;2023-09-19T18:34:03;18.40;99.90
46676;DHT22;32412;51.478;5.694;2023-09-19T18:36:29;18.40;99.90
46676;DHT22;32412;51.478;5.694;2023-09-19T18:38:59;18.40;99.90
46676;DHT22;32412;51.478;5.694;2023-09-19T18:41:25;18.40;99.90
46676;DHT22;32412;51.478;5.694;2023-09-19T18:43:51;18.40;99.90
46676;DHT22;32412;51.478;5.694;2023-09-19T18:46:16;18.40;99.90
46676;DHT22;32412;51.478;5.694;2023-09-19T18:48:43;18.40;99.90
46676;DHT22;32412;51.478;5.694;2023-09-19T18:51:13;18.40;99.90
46676;DHT22;32412;51.478;5.694;2023-09-19T18:53:40;18.40;99.90
46676;DHT22;32412;51.478;5.694;2023-09-19T18:56:08;18.40;99.90
46676;DHT22;32412;51.478;5.694;2023-09-19T18:58:34;18.40;99.90
46676;DHT22;32412;51.478;5.694;2023-09-19T19:01:04;18.40;99.90
46676;DHT22;32412;51.478;5.694;2023-09-19T19:03:30;18.40;99.90
46676;DHT22;32412;51.478;5.694;2023-09-19T19:05:57;18.40;99.90
46676;DHT22;32412;51.478;5.694;2023-09-19T19:08:26;18.40;99.90